createdAt,value
2022-08-21T00:00:28.770Z,19.20
2022-08-21T00:03:00.003Z,19.10
2022-08-21T00:05:28.218Z,19.10
2022-08-21T00:07:55.995Z,19.10
2022-08-21T00:10:23.997Z,19.10
2022-08-21T00:12:53.677Z,19.10
2022-08-21T00:15:28.538Z,19.00
2022-08-21T00:17:56.721Z,19.00
2022-08-21T00:20:24.748Z,19.00
2022-08-21T00:22:53.691Z,18.90
2022-08-21T00:25:24.980Z,18.90
2022-08-21T00:27:54.331Z,19.00
2022-08-21T00:30:23.372Z,18.90
2022-08-21T00:32:51.487Z,18.90
2022-08-21T00:35:24.031Z,18.90
2022-08-21T00:37:51.278Z,19.00
2022-08-21T00:40:23.788Z,18.90
2022-08-21T00:42:53.467Z,18.90
2022-08-21T00:45:24.942Z,18.80
2022-08-21T00:47:52.848Z,18.90
2022-08-21T00:50:24.250Z,18.90
2022-08-21T00:52:53.452Z,18.80
2022-08-21T00:55:23.501Z,18.80
2022-08-21T00:57:55.673Z,18.70
2022-08-21T01:00:29.756Z,18.90
2022-08-21T01:03:01.187Z,18.80
2022-08-21T01:05:28.757Z,18.80
2022-08-21T01:07:58.515Z,18.80
2022-08-21T01:10:25.722Z,18.70
2022-08-21T01:12:56.691Z,18.70
2022-08-21T01:15:29.487Z,18.80
2022-08-21T01:17:57.716Z,18.80
2022-08-21T01:20:32.756Z,18.70
2022-08-21T01:23:01.358Z,18.70
2022-08-21T01:25:28.641Z,18.70
2022-08-21T01:27:57.996Z,18.60
2022-08-21T01:30:27.240Z,18.60
2022-08-21T01:32:57.051Z,18.60
2022-08-21T01:35:23.999Z,18.80
2022-08-21T01:37:51.480Z,18.70
2022-08-21T01:40:19.035Z,18.50
2022-08-21T01:42:47.974Z,18.40
2022-08-21T01:45:15.878Z,18.40
2022-08-21T01:47:43.763Z,18.40
2022-08-21T01:50:15.197Z,18.40
2022-08-21T01:52:42.707Z,18.40
2022-08-21T01:55:11.621Z,18.40
2022-08-21T01:57:38.518Z,18.40
2022-08-21T02:00:09.762Z,18.40
2022-08-21T02:02:36.533Z,18.40
2022-08-21T02:05:05.669Z,18.40
2022-08-21T02:07:43.897Z,18.30
2022-08-21T02:10:14.622Z,18.30
2022-08-21T02:12:41.377Z,18.30
2022-08-21T02:15:10.204Z,18.30
2022-08-21T02:17:58.904Z,18.20
2022-08-21T02:20:34.063Z,18.10
2022-08-21T02:23:01.712Z,18.10
2022-08-21T02:25:30.275Z,18.10
2022-08-21T02:27:58.246Z,18.00
2022-08-21T02:30:30.681Z,18.00
2022-08-21T02:32:58.390Z,18.00
2022-08-21T02:35:25.543Z,18.00
2022-08-21T02:37:56.973Z,18.10
2022-08-21T02:40:27.466Z,18.00
2022-08-21T02:42:54.601Z,18.00
2022-08-21T02:45:21.528Z,18.00
2022-08-21T02:47:51.270Z,18.10
2022-08-21T02:50:24.693Z,18.00
2022-08-21T02:52:54.972Z,18.00
2022-08-21T02:55:25.000Z,18.00
2022-08-21T02:57:51.791Z,18.00
2022-08-21T03:00:19.084Z,18.00
2022-08-21T03:02:47.633Z,18.00
2022-08-21T03:05:16.118Z,17.90
2022-08-21T03:07:44.678Z,18.00
2022-08-21T03:10:11.815Z,18.00
2022-08-21T03:12:41.012Z,18.00
2022-08-21T03:15:15.803Z,18.00
2022-08-21T03:17:42.594Z,18.00
2022-08-21T03:20:11.100Z,18.00
2022-08-21T03:22:37.871Z,18.00
2022-08-21T03:25:06.290Z,18.00
2022-08-21T03:27:35.072Z,18.00
2022-08-21T03:30:04.617Z,17.90
2022-08-21T03:32:32.811Z,17.90
2022-08-21T03:35:01.573Z,17.90
2022-08-21T03:37:28.800Z,17.90
2022-08-21T03:39:56.351Z,17.90
2022-08-21T03:42:24.273Z,17.90
2022-08-21T03:44:51.669Z,17.90
2022-08-21T03:47:18.571Z,17.80
2022-08-21T03:49:45.782Z,17.80
2022-08-21T03:52:12.891Z,17.80
2022-08-21T03:54:41.402Z,17.70
2022-08-21T03:57:10.226Z,17.80
2022-08-21T03:59:38.200Z,17.80
2022-08-21T04:02:06.777Z,17.80
2022-08-21T04:04:34.953Z,17.70
2022-08-21T04:07:02.359Z,17.80
2022-08-21T04:09:29.775Z,17.80
2022-08-21T04:11:57.203Z,17.80
2022-08-21T04:14:24.293Z,17.70
2022-08-21T04:16:51.053Z,17.70
2022-08-21T04:19:18.151Z,17.70
2022-08-21T04:21:45.054Z,17.70
2022-08-21T04:24:13.376Z,17.70
2022-08-21T04:26:41.294Z,17.70
2022-08-21T04:29:08.001Z,17.70
2022-08-21T04:31:40.400Z,17.60
2022-08-21T04:34:07.244Z,17.60
2022-08-21T04:36:35.328Z,17.60
2022-08-21T04:39:03.529Z,17.70
2022-08-21T04:41:30.604Z,17.70
2022-08-21T04:43:57.964Z,17.70
2022-08-21T04:46:24.819Z,17.80
2022-08-21T04:48:52.023Z,17.70
2022-08-21T04:51:24.269Z,17.70
2022-08-21T04:54:02.143Z,17.70
2022-08-21T04:56:52.972Z,17.70
2022-08-21T04:59:25.365Z,17.70
2022-08-21T05:01:52.878Z,17.70
2022-08-21T05:04:25.586Z,17.80
2022-08-21T05:06:55.987Z,17.70
2022-08-21T05:09:23.819Z,17.70
2022-08-21T05:11:52.961Z,17.70
2022-08-21T05:14:20.557Z,17.70
2022-08-21T05:16:48.579Z,17.70
2022-08-21T05:19:16.797Z,17.60
2022-08-21T05:21:45.585Z,17.60
2022-08-21T05:24:12.787Z,17.40
2022-08-21T05:26:46.154Z,17.50
2022-08-21T05:29:15.501Z,17.50
2022-08-21T05:31:43.907Z,17.50
2022-08-21T05:34:11.034Z,17.50
2022-08-21T05:36:38.077Z,17.50
2022-08-21T05:39:05.643Z,17.40
2022-08-21T05:41:33.387Z,17.40
2022-08-21T05:44:01.694Z,17.50
2022-08-21T05:46:28.396Z,17.40
2022-08-21T05:48:55.474Z,17.40
2022-08-21T05:51:22.305Z,17.40
2022-08-21T05:53:49.459Z,17.40
2022-08-21T05:56:16.502Z,17.40
2022-08-21T05:58:44.919Z,17.40
2022-08-21T06:01:12.284Z,17.40
2022-08-21T06:03:41.926Z,17.40
2022-08-21T06:06:09.227Z,17.40
2022-08-21T06:08:36.317Z,17.40
2022-08-21T06:11:04.964Z,17.30
2022-08-21T06:13:31.827Z,17.30
2022-08-21T06:16:10.887Z,17.30
2022-08-21T06:18:40.964Z,17.30
2022-08-21T06:21:09.383Z,17.30
2022-08-21T06:23:36.859Z,17.30
2022-08-21T06:26:09.398Z,17.30
2022-08-21T06:28:38.452Z,17.30
2022-08-21T06:31:16.005Z,17.30
2022-08-21T06:33:43.699Z,17.30
2022-08-21T06:36:10.574Z,17.30
2022-08-21T06:38:38.912Z,17.20
2022-08-21T06:41:06.605Z,17.20
2022-08-21T06:43:39.850Z,17.30
2022-08-21T06:46:08.771Z,17.30
2022-08-21T06:48:36.051Z,17.40
2022-08-21T06:51:03.176Z,17.30
2022-08-21T06:53:31.298Z,17.20
2022-08-21T06:55:58.470Z,17.10
2022-08-21T06:58:25.260Z,17.10
2022-08-21T07:00:54.718Z,17.00
2022-08-21T07:03:34.033Z,16.90
2022-08-21T07:06:01.607Z,16.70
2022-08-21T07:08:28.779Z,16.50
2022-08-21T07:11:02.849Z,16.50
2022-08-21T07:13:30.059Z,16.40
2022-08-21T07:16:03.916Z,16.30
2022-08-21T07:18:31.041Z,16.30
2022-08-21T07:20:57.995Z,16.30
2022-08-21T07:23:30.260Z,16.20
2022-08-21T07:25:57.704Z,16.10
2022-08-21T07:28:24.547Z,16.20
2022-08-21T07:30:55.758Z,16.20
2022-08-21T07:33:24.737Z,16.20
2022-08-21T07:35:52.068Z,16.20
2022-08-21T07:38:20.112Z,16.20
2022-08-21T07:40:49.001Z,16.20
2022-08-21T07:43:29.658Z,16.30
2022-08-21T07:45:57.206Z,16.20
2022-08-21T07:48:24.987Z,16.20
2022-08-21T07:50:52.460Z,16.10
2022-08-21T07:53:21.508Z,16.10
2022-08-21T07:55:54.316Z,16.10
2022-08-21T07:58:24.652Z,16.10
2022-08-21T08:00:51.757Z,16.00
2022-08-21T08:03:28.952Z,16.00
2022-08-21T08:05:58.725Z,16.00
2022-08-21T08:08:26.048Z,15.90
2022-08-21T08:10:55.157Z,15.90
2022-08-21T08:13:21.962Z,15.90
2022-08-21T08:15:49.203Z,15.80
2022-08-21T08:18:16.033Z,15.80
2022-08-21T08:20:43.213Z,15.90
2022-08-21T08:23:14.099Z,15.90
2022-08-21T08:25:42.180Z,15.80
2022-08-21T08:28:17.376Z,15.80
2022-08-21T08:30:46.343Z,15.90
2022-08-21T08:33:15.480Z,15.90
2022-08-21T08:35:45.912Z,15.90
2022-08-21T08:38:13.064Z,15.90
2022-08-21T08:40:46.177Z,15.90
2022-08-21T08:43:16.836Z,15.90
2022-08-21T08:45:49.020Z,16.00
2022-08-21T08:48:38.996Z,16.00
2022-08-21T08:51:10.238Z,15.90
2022-08-21T08:53:49.800Z,16.00
2022-08-21T08:56:18.258Z,15.90
2022-08-21T08:58:46.515Z,16.00
2022-08-21T09:01:21.335Z,16.10
2022-08-21T09:03:51.025Z,16.20
2022-08-21T09:06:46.403Z,16.20
2022-08-21T09:09:19.551Z,16.40
2022-08-21T09:12:20.068Z,16.60
2022-08-21T09:15:23.951Z,16.60
2022-08-21T09:18:12.731Z,16.60
2022-08-21T09:20:46.013Z,16.60
2022-08-21T09:23:56.192Z,16.50
2022-08-21T09:26:31.472Z,16.40
2022-08-21T09:29:01.844Z,16.40
2022-08-21T09:31:32.961Z,16.50
2022-08-21T09:34:02.235Z,16.50
2022-08-21T09:36:46.013Z,16.50
2022-08-21T09:39:14.768Z,16.50
2022-08-21T09:41:42.208Z,16.40
2022-08-21T09:44:11.148Z,16.50
2022-08-21T09:46:40.043Z,16.50
2022-08-21T09:49:15.135Z,16.50
2022-08-21T09:51:54.506Z,16.50
2022-08-21T09:54:42.808Z,16.20
2022-08-21T09:57:34.235Z,16.20
2022-08-21T10:00:31.780Z,16.10
2022-08-21T10:03:19.769Z,16.40
2022-08-21T10:06:06.534Z,16.60
2022-08-21T10:08:38.945Z,16.80
2022-08-21T10:11:16.402Z,16.70
2022-08-21T10:13:48.285Z,16.70
2022-08-21T10:16:26.553Z,16.80
2022-08-21T10:19:05.047Z,16.80
2022-08-21T10:22:00.456Z,16.60
2022-08-21T10:24:45.122Z,16.60
2022-08-21T10:27:23.823Z,16.60
2022-08-21T10:30:04.730Z,16.60
2022-08-21T10:33:00.219Z,16.70
2022-08-21T10:35:36.899Z,16.80
2022-08-21T10:38:46.386Z,16.90
2022-08-21T10:41:08.934Z,17.00
2022-08-21T10:43:49.439Z,17.20
2022-08-21T10:46:35.351Z,17.30
2022-08-21T10:49:19.491Z,17.20
2022-08-21T10:52:23.542Z,17.30
2022-08-21T10:55:09.287Z,17.30
2022-08-21T10:58:05.012Z,17.40
2022-08-21T11:00:46.174Z,17.70
2022-08-21T11:03:22.897Z,17.80
2022-08-21T11:05:56.225Z,17.70
2022-08-21T11:08:40.121Z,17.70
2022-08-21T11:11:22.302Z,17.90
2022-08-21T11:14:06.496Z,17.80
2022-08-21T11:16:46.686Z,17.70
2022-08-21T11:19:35.894Z,17.80
2022-08-21T11:22:30.289Z,17.80
2022-08-21T11:25:08.293Z,17.80
2022-08-21T11:28:03.834Z,17.80
2022-08-21T11:30:48.896Z,17.80
2022-08-21T11:33:34.043Z,17.80
2022-08-21T11:36:30.630Z,17.80
2022-08-21T11:39:00.294Z,17.80
2022-08-21T11:41:38.483Z,17.70
2022-08-21T11:44:23.331Z,17.70
2022-08-21T11:47:01.020Z,17.70
2022-08-21T11:49:57.773Z,17.60
2022-08-21T11:52:35.509Z,17.60
2022-08-21T11:55:45.340Z,17.70
2022-08-21T11:58:21.922Z,17.90
2022-08-21T12:00:57.961Z,18.20
2022-08-21T12:03:32.979Z,18.10
2022-08-21T12:06:05.224Z,18.40
2022-08-21T12:08:41.822Z,18.40
2022-08-21T12:11:12.526Z,18.40
2022-08-21T12:13:42.808Z,18.50
2022-08-21T12:16:12.975Z,18.40
2022-08-21T12:18:40.413Z,18.30
2022-08-21T12:21:29.470Z,18.20
2022-08-21T12:24:40.457Z,18.30
2022-08-21T12:27:45.275Z,18.20
2022-08-21T12:30:27.380Z,18.00
2022-08-21T12:33:23.859Z,17.90
2022-08-21T12:35:54.328Z,18.00
2022-08-21T12:38:29.516Z,18.10
2022-08-21T12:41:14.048Z,18.10
2022-08-21T12:43:51.898Z,18.00
2022-08-21T12:46:33.417Z,17.90
2022-08-21T12:49:09.329Z,18.00
2022-08-21T12:51:57.153Z,18.00
2022-08-21T12:54:27.839Z,18.00
2022-08-21T12:57:01.162Z,18.10
2022-08-21T12:59:31.677Z,18.20
2022-08-21T13:02:01.994Z,18.20
2022-08-21T13:04:42.716Z,18.10
2022-08-21T13:07:13.359Z,18.00
2022-08-21T13:09:56.494Z,18.10
2022-08-21T13:12:24.638Z,18.30
2022-08-21T13:15:09.032Z,18.30
2022-08-21T13:17:40.911Z,18.30
2022-08-21T13:20:29.268Z,18.30
2022-08-21T13:22:57.618Z,18.50
2022-08-21T13:25:30.429Z,18.60
2022-08-21T13:28:01.273Z,18.60
2022-08-21T13:30:32.237Z,18.60
2022-08-21T13:33:03.085Z,18.70
2022-08-21T13:35:38.170Z,18.70
2022-08-21T13:38:09.721Z,18.80
2022-08-21T13:40:58.878Z,18.90
2022-08-21T13:43:44.449Z,19.00
2022-08-21T13:46:15.117Z,19.10
2022-08-21T13:48:43.296Z,18.90
2022-08-21T13:51:11.344Z,18.90
2022-08-21T13:53:52.619Z,18.80
2022-08-21T13:56:34.797Z,18.70
2022-08-21T13:59:06.724Z,18.70
2022-08-21T14:02:00.098Z,18.80
2022-08-21T14:05:00.066Z,18.80
2022-08-21T14:07:50.429Z,18.70
2022-08-21T14:10:39.565Z,18.70
2022-08-21T14:15:58.913Z,18.70
2022-08-21T14:18:27.041Z,18.60
2022-08-21T14:21:08.868Z,18.50
2022-08-21T14:23:36.016Z,18.40
2022-08-21T14:26:05.685Z,18.50
2022-08-21T14:28:51.082Z,18.60
2022-08-21T14:31:21.328Z,18.60
2022-08-21T14:33:51.534Z,18.60
2022-08-21T14:36:18.260Z,18.70
2022-08-21T14:38:46.019Z,18.60
2022-08-21T14:41:22.630Z,18.50
2022-08-21T14:43:55.805Z,18.60
2022-08-21T14:46:36.350Z,18.60
2022-08-21T14:49:12.602Z,18.70
2022-08-21T14:51:48.101Z,18.80
2022-08-21T14:54:23.191Z,18.80
2022-08-21T14:57:03.598Z,18.70
2022-08-21T14:59:33.415Z,18.70
2022-08-21T15:02:00.656Z,18.60
2022-08-21T15:04:28.951Z,18.50
2022-08-21T15:06:58.111Z,18.50
2022-08-21T15:09:25.719Z,18.50
2022-08-21T15:11:58.796Z,18.50
2022-08-21T15:14:31.065Z,18.40
2022-08-21T15:16:58.123Z,18.40
2022-08-21T15:19:31.492Z,18.40
2022-08-21T15:21:59.280Z,18.40
2022-08-21T15:24:28.625Z,18.30
2022-08-21T15:26:56.784Z,18.40
2022-08-21T15:29:24.053Z,18.40
2022-08-21T15:32:19.170Z,18.50
2022-08-21T15:34:46.141Z,18.50
2022-08-21T15:37:13.274Z,18.50
2022-08-21T15:39:42.570Z,18.60
2022-08-21T15:42:13.553Z,18.50
2022-08-21T15:44:45.888Z,18.60
2022-08-21T15:47:15.974Z,18.50
2022-08-21T15:49:46.566Z,18.50
2022-08-21T15:52:15.001Z,18.60
2022-08-21T15:54:42.358Z,18.60
2022-08-21T15:57:15.078Z,18.50
2022-08-21T15:59:51.506Z,18.40
2022-08-21T16:02:26.131Z,18.50
2022-08-21T16:04:53.436Z,18.50
2022-08-21T16:07:21.639Z,18.60
2022-08-21T16:09:48.812Z,18.60
2022-08-21T16:12:26.543Z,18.70
2022-08-21T16:14:54.845Z,18.70
2022-08-21T16:17:27.788Z,18.70
2022-08-21T16:19:56.360Z,18.70
2022-08-21T16:22:23.277Z,18.60
2022-08-21T16:24:50.037Z,18.60
2022-08-21T16:27:18.966Z,18.60
2022-08-21T16:29:46.869Z,18.60
2022-08-21T16:32:17.380Z,18.50
2022-08-21T16:34:48.085Z,18.50
2022-08-21T16:37:21.870Z,18.40
2022-08-21T16:39:53.454Z,18.40
2022-08-21T16:42:26.075Z,18.40
2022-08-21T16:44:55.417Z,18.40
2022-08-21T16:47:26.961Z,18.30
2022-08-21T16:49:57.565Z,18.20
2022-08-21T16:52:25.566Z,18.20
2022-08-21T16:54:52.351Z,18.20
2022-08-21T16:57:22.692Z,18.20
2022-08-21T16:59:51.589Z,18.20
2022-08-21T17:02:40.506Z,18.20
2022-08-21T17:05:12.892Z,18.20
2022-08-21T17:07:42.131Z,18.10
2022-08-21T17:10:10.934Z,18.10
2022-08-21T17:12:44.223Z,18.10
2022-08-21T17:15:23.644Z,18.10
2022-08-21T17:17:51.061Z,18.10
2022-08-21T17:20:19.116Z,18.00
2022-08-21T17:22:45.967Z,18.00
2022-08-21T17:25:14.198Z,17.90
2022-08-21T17:27:45.567Z,17.80
2022-08-21T17:30:13.453Z,17.80
2022-08-21T17:32:40.845Z,17.70
2022-08-21T17:35:08.007Z,17.70
2022-08-21T17:37:36.272Z,17.70
2022-08-21T17:40:06.991Z,17.60
2022-08-21T17:42:34.549Z,17.50
2022-08-21T17:45:03.522Z,17.40
2022-08-21T17:47:30.388Z,17.40
2022-08-21T17:50:00.261Z,17.50
2022-08-21T17:52:27.297Z,17.50
2022-08-21T17:54:54.252Z,17.50
2022-08-21T17:57:24.172Z,17.50
2022-08-21T17:59:56.407Z,17.50
2022-08-21T18:02:28.863Z,17.50
2022-08-21T18:04:56.474Z,17.40
2022-08-21T18:07:25.329Z,17.40
2022-08-21T18:10:01.148Z,17.40
2022-08-21T18:12:37.228Z,17.40
2022-08-21T18:15:04.819Z,17.40
2022-08-21T18:17:33.785Z,17.40
2022-08-21T18:20:02.644Z,17.50
2022-08-21T18:22:29.528Z,17.40
2022-08-21T18:24:56.302Z,17.40
2022-08-21T18:27:26.745Z,17.40
2022-08-21T18:29:58.181Z,17.40
2022-08-21T18:32:31.873Z,17.30
2022-08-21T18:35:03.719Z,17.20
2022-08-21T18:37:34.921Z,17.20
2022-08-21T18:40:01.952Z,17.10
2022-08-21T18:42:37.882Z,17.10
2022-08-21T18:45:08.206Z,17.20
2022-08-21T18:47:42.333Z,17.10
2022-08-21T18:50:11.359Z,17.10
2022-08-21T18:52:43.382Z,17.20
2022-08-21T18:55:24.374Z,17.10
2022-08-21T18:57:55.540Z,17.20
2022-08-21T19:00:28.984Z,17.20
2022-08-21T19:02:56.021Z,17.20
2022-08-21T19:05:27.676Z,17.10
2022-08-21T19:07:56.151Z,17.00
2022-08-21T19:10:27.908Z,16.90
2022-08-21T19:13:00.585Z,16.80
2022-08-21T19:15:30.062Z,16.70
2022-08-21T19:17:57.605Z,16.80
2022-08-21T19:20:28.630Z,16.80
2022-08-21T19:22:56.662Z,16.80
2022-08-21T19:25:33.966Z,16.70
2022-08-21T19:28:10.873Z,16.70
2022-08-21T19:30:51.206Z,16.60
2022-08-21T19:33:31.009Z,16.50
2022-08-21T19:36:19.657Z,16.40
2022-08-21T19:41:46.202Z,16.30
2022-08-21T19:44:22.446Z,16.30
2022-08-21T19:46:51.922Z,16.30
2022-08-21T19:49:33.947Z,16.20
2022-08-21T19:52:13.046Z,16.20
2022-08-21T19:54:43.454Z,16.30
2022-08-21T19:57:14.574Z,16.20
2022-08-21T19:59:45.390Z,16.20
2022-08-21T20:02:18.071Z,16.20
2022-08-21T20:04:53.207Z,16.20
2022-08-21T20:07:25.092Z,16.20
2022-08-21T20:09:57.126Z,16.20
2022-08-21T20:12:25.230Z,16.20
2022-08-21T20:14:53.596Z,16.20
2022-08-21T20:17:23.760Z,16.10
2022-08-21T20:19:56.222Z,16.20
2022-08-21T20:22:24.039Z,16.20
2022-08-21T20:25:10.747Z,16.20
2022-08-21T20:27:40.404Z,16.10
2022-08-21T20:30:08.640Z,16.10
2022-08-21T20:32:36.393Z,16.20
2022-08-21T20:35:05.801Z,16.20
2022-08-21T20:37:40.484Z,16.30
2022-08-21T20:40:12.205Z,16.30
2022-08-21T20:42:41.390Z,16.30
2022-08-21T20:45:13.207Z,16.30
2022-08-21T20:47:44.382Z,16.30
2022-08-21T20:50:14.281Z,16.30
2022-08-21T20:52:44.135Z,16.30
2022-08-21T20:55:19.998Z,16.30
2022-08-21T20:58:12.527Z,16.30
2022-08-21T21:00:43.505Z,16.20
2022-08-21T21:03:13.885Z,16.30
2022-08-21T21:08:46.656Z,16.30
2022-08-21T21:11:33.621Z,16.20
2022-08-21T21:14:28.240Z,16.20
2022-08-21T21:17:15.870Z,16.10
2022-08-21T21:19:51.597Z,16.10
2022-08-21T21:22:32.743Z,16.10
2022-08-21T21:25:08.647Z,16.10
2022-08-21T21:27:41.858Z,16.10
2022-08-21T21:30:32.360Z,15.90
2022-08-21T21:32:59.666Z,16.10
2022-08-21T21:38:36.994Z,16.10
2022-08-21T21:41:28.649Z,16.10
2022-08-21T21:44:27.646Z,16.10
2022-08-21T21:47:05.213Z,16.10
2022-08-21T21:49:59.692Z,16.20
2022-08-21T21:52:45.850Z,16.10
2022-08-21T21:55:28.189Z,16.10
2022-08-21T21:58:38.853Z,16.00
2022-08-21T22:01:20.248Z,16.00
2022-08-21T22:04:03.620Z,16.00
2022-08-21T22:06:59.216Z,16.00
2022-08-21T22:10:00.070Z,16.00
2022-08-21T22:12:56.411Z,16.00
2022-08-21T22:15:36.849Z,16.00
2022-08-21T22:18:10.646Z,16.00
2022-08-21T22:20:59.377Z,16.00
2022-08-21T22:23:31.896Z,16.00
2022-08-21T22:26:13.457Z,15.90
2022-08-21T22:28:45.354Z,15.90
2022-08-21T22:31:28.188Z,15.80
2022-08-21T22:34:17.884Z,15.80
2022-08-21T22:36:54.771Z,15.70
2022-08-21T22:39:38.524Z,15.70
2022-08-21T22:42:25.735Z,15.70
2022-08-21T22:44:57.097Z,15.60
2022-08-21T22:47:33.985Z,15.60
2022-08-21T22:50:07.121Z,15.60
2022-08-21T22:52:45.325Z,15.70
2022-08-21T22:55:49.560Z,15.60
2022-08-21T22:58:25.062Z,15.60
2022-08-21T23:01:04.381Z,15.60
2022-08-21T23:03:51.997Z,15.60
2022-08-21T23:06:43.958Z,15.60
2022-08-21T23:09:33.495Z,15.70
2022-08-21T23:12:14.137Z,15.70
2022-08-21T23:14:54.773Z,15.70
2022-08-21T23:17:38.749Z,15.70
2022-08-21T23:20:30.361Z,15.70
2022-08-21T23:23:04.878Z,15.70
2022-08-21T23:25:36.545Z,15.70
2022-08-21T23:28:40.886Z,15.80
2022-08-21T23:31:44.680Z,15.90
2022-08-21T23:34:25.689Z,16.00
2022-08-21T23:37:48.375Z,15.80
2022-08-21T23:40:16.081Z,15.80
2022-08-21T23:43:17.375Z,15.80
2022-08-21T23:45:59.689Z,15.90
2022-08-21T23:48:42.303Z,15.80
2022-08-21T23:51:17.012Z,15.80
2022-08-21T23:54:09.511Z,15.80
2022-08-21T23:57:14.595Z,16.00
